Smithfield, PA (15478)

8:31 PM EST on January 25, 2015 (GMT -0500)
Fairchance/Cheat Lake | Change Station
CLOSE
Current Station
Personal Weather Station
Location: Morgantown, WV
Elevation: 1080 ft
Nearby Weather Stations
Active Advisory: Winter Weather Advisory

Elev 1080 ft 39.72 °N, 79.81 °W | Updated 44 seconds ago

Overcast
Overcast
34.3 °F
Feels Like 34 °F
N
0.0
Wind Variable Wind from West
Gusts 0.0 mph

Today
High -- | Low -- °F
--% Chance of Precip.
Yesterday
High -- | Low -- °F
Precip. -- in
7:33 AM 5:30 PM
Waxing Crescent, 37% visible
Pressure 29.76 in
Visibility 2.5 miles
Clouds Few 2800 ft
Overcast 10000 ft
Windchill 34 °F
Dew Point 33 °F
Humidity 95%
Rainfall 0.00 in
Snow Depth Not available.
UV 0 out of 12
Pollen .10 out of 12
Air Quality Not available.
Flu Activity Not available.
SPECI KMGW 260117Z 01004KT 2 1/2SM BR FEW028 OVC100 02/00 A2976 RMK AO2 RAE0054 P0000 T00170000

More Conditions Fewer Conditions

Pressure 29.76 in
Visibility 2.5 miles
Clouds Few 2800 ft
Overcast 10000 ft
Windchill 34 °F
Dew Point 33 °F
Humidity 95%
Rainfall 0.00 in
Snow Depth Not available.
UV 0 out of 12
Pollen .10 out of 12
Air Quality Not available.
Flu Activity Not available.
SPECI KMGW 260117Z 01004KT 2 1/2SM BR FEW028 OVC100 02/00 A2976 RMK AO2 RAE0054 P0000 T00170000

More Conditions Fewer Conditions

10-Day Weather Forecast

Almanac

Astronomy

Jan. 25, 2015 Rise Set
Actual Time
Civil Twilight
Nautical Twilight
Astronomical Twilight
Moon
Length of Visible Light
Length of Day
Tomorrow will be .
, % of the Moon is Illuminated

Today's Extremes

State Highs State Lows

Community

WunderPhotos

Upload Photos

1,790,039 photos uploaded!

WunderBlogs® & News

Nearby

Air Quality

  Air Quality AQ Index Pollutant
Not available.

Snow Depth

Station Depth Elevation

Earthquake Activity

City Distance Mag. Time & Date
Minimum magnitude displayed is 2.5.

Coastal Water Temperatures

Place Temperature

Nearby Weather Stations